sensor_id;sensor_type;location;lat;lon;timestamp;temperature;humidity
18882;DHT22;9573;50.948;11.600;2022-10-20T00:00:22;4.70;99.90
18882;DHT22;9573;50.948;11.600;2022-10-20T00:02:49;4.70;99.90
18882;DHT22;9573;50.948;11.600;2022-10-20T00:05:17;4.60;99.90
18882;DHT22;9573;50.948;11.600;2022-10-20T00:07:44;4.60;99.90
18882;DHT22;9573;50.948;11.600;2022-10-20T00:10:11;4.60;99.90
18882;DHT22;9573;50.948;11.600;2022-10-20T00:12:38;4.50;99.90
18882;DHT22;9573;50.948;11.600;2022-10-20T00:15:06;4.50;99.90
18882;DHT22;9573;50.948;11.600;2022-10-20T00:17:34;4.50;99.90
18882;DHT22;9573;50.948;11.600;2022-10-20T00:20:02;4.50;99.90
18882;DHT22;9573;50.948;11.600;2022-10-20T00:22:30;4.50;99.90
18882;DHT22;9573;50.948;11.600;2022-10-20T00:24:57;4.50;99.90
18882;DHT22;9573;50.948;11.600;2022-10-20T00:27:24;4.50;99.90
18882;DHT22;9573;50.948;11.600;2022-10-20T00:29:51;4.50;99.90
18882;DHT22;9573;50.948;11.600;2022-10-20T00:32:19;4.40;99.90
18882;DHT22;9573;50.948;11.600;2022-10-20T00:34:47;4.40;99.90
18882;DHT22;9573;50.948;11.600;2022-10-20T00:37:14;4.40;99.90
18882;DHT22;9573;50.948;11.600;2022-10-20T00:39:41;4.40;99.90
18882;DHT22;9573;50.948;11.600;2022-10-20T00:42:10;4.30;99.90
18882;DHT22;9573;50.948;11.600;2022-10-20T00:44:52;4.30;99.90
18882;DHT22;9573;50.948;11.600;2022-10-20T00:47:27;4.30;99.90
18882;DHT22;9573;50.948;11.600;2022-10-20T00:50:06;4.30;99.90
18882;DHT22;9573;50.948;11.600;2022-10-20T00:52:36;4.30;99.90
18882;DHT22;9573;50.948;11.600;2022-10-20T00:55:05;4.20;99.90
18882;DHT22;9573;50.948;11.600;2022-10-20T00:57:34;4.20;99.90
18882;DHT22;9573;50.948;11.600;2022-10-20T01:00:01;4.20;99.90
18882;DHT22;9573;50.948;11.600;2022-10-20T01:02:28;4.10;99.90
18882;DHT22;9573;50.948;11.600;2022-10-20T01:04:55;4.10;99.90
18882;DHT22;9573;50.948;11.600;2022-10-20T01:07:24;4.10;99.90
18882;DHT22;9573;50.948;11.600;2022-10-20T01:09:51;4.00;99.90
18882;DHT22;9573;50.948;11.600;2022-10-20T01:12:25;4.00;99.90
18882;DHT22;9573;50.948;11.600;2022-10-20T01:15:02;3.90;99.90
18882;DHT22;9573;50.948;11.600;2022-10-20T01:17:40;3.90;99.90
18882;DHT22;9573;50.948;11.600;2022-10-20T01:20:35;3.90;99.90
18882;DHT22;9573;50.948;11.600;2022-10-20T01:29:52;3.80;99.90
18882;DHT22;9573;50.948;11.600;2022-10-20T01:32:27;3.80;99.90
18882;DHT22;9573;50.948;11.600;2022-10-20T01:35:05;3.80;99.90
18882;DHT22;9573;50.948;11.600;2022-10-20T01:37:40;3.70;99.90
18882;DHT22;9573;50.948;11.600;2022-10-20T01:40:16;3.70;99.90
18882;DHT22;9573;50.948;11.600;2022-10-20T01:42:49;3.70;99.90
18882;DHT22;9573;50.948;11.600;2022-10-20T01:45:20;3.70;99.90
18882;DHT22;9573;50.948;11.600;2022-10-20T01:47:50;3.70;99.90
18882;DHT22;9573;50.948;11.600;2022-10-20T01:50:20;3.60;99.90
18882;DHT22;9573;50.948;11.600;2022-10-20T01:52:47;3.60;99.90
18882;DHT22;9573;50.948;11.600;2022-10-20T01:55:16;3.60;99.90
18882;DHT22;9573;50.948;11.600;2022-10-20T01:57:53;3.60;99.90
18882;DHT22;9573;50.948;11.600;2022-10-20T02:00:29;3.60;99.90
18882;DHT22;9573;50.948;11.600;2022-10-20T02:03:22;3.50;99.90
18882;DHT22;9573;50.948;11.600;2022-10-20T02:06:06;3.50;99.90
18882;DHT22;9573;50.948;11.600;2022-10-20T02:08:41;3.50;99.90
18882;DHT22;9573;50.948;11.600;2022-10-20T02:11:17;3.50;99.90
18882;DHT22;9573;50.948;11.600;2022-10-20T02:13:49;3.50;99.90
18882;DHT22;9573;50.948;11.600;2022-10-20T02:16:23;3.40;99.90
18882;DHT22;9573;50.948;11.600;2022-10-20T02:18:54;3.50;99.90
18882;DHT22;9573;50.948;11.600;2022-10-20T02:21:22;3.40;99.90
18882;DHT22;9573;50.948;11.600;2022-10-20T02:23:50;3.40;99.90
18882;DHT22;9573;50.948;11.600;2022-10-20T02:26:21;3.40;99.90
18882;DHT22;9573;50.948;11.600;2022-10-20T02:28:54;3.40;99.90
18882;DHT22;9573;50.948;11.600;2022-10-20T02:31:24;3.50;99.90
18882;DHT22;9573;50.948;11.600;2022-10-20T02:33:52;3.50;99.90
18882;DHT22;9573;50.948;11.600;2022-10-20T02:36:25;3.50;99.90
18882;DHT22;9573;50.948;11.600;2022-10-20T02:38:53;3.50;99.90
18882;DHT22;9573;50.948;11.600;2022-10-20T02:41:21;3.50;99.90
18882;DHT22;9573;50.948;11.600;2022-10-20T02:43:48;3.50;99.90
18882;DHT22;9573;50.948;11.600;2022-10-20T02:46:16;3.60;99.90
18882;DHT22;9573;50.948;11.600;2022-10-20T02:48:44;3.60;99.90
18882;DHT22;9573;50.948;11.600;2022-10-20T02:51:11;3.70;99.90
18882;DHT22;9573;50.948;11.600;2022-10-20T02:53:38;3.90;99.90
18882;DHT22;9573;50.948;11.600;2022-10-20T02:56:06;4.00;99.90
18882;DHT22;9573;50.948;11.600;2022-10-20T02:58:33;4.00;99.90
18882;DHT22;9573;50.948;11.600;2022-10-20T03:01:00;4.00;99.90
18882;DHT22;9573;50.948;11.600;2022-10-20T03:03:28;4.00;99.90
18882;DHT22;9573;50.948;11.600;2022-10-20T03:05:55;3.90;99.90
18882;DHT22;9573;50.948;11.600;2022-10-20T03:08:23;3.80;99.90
18882;DHT22;9573;50.948;11.600;2022-10-20T03:10:50;3.80;99.90
18882;DHT22;9573;50.948;11.600;2022-10-20T03:13:17;3.80;99.90
18882;DHT22;9573;50.948;11.600;2022-10-20T03:15:44;3.70;99.90
18882;DHT22;9573;50.948;11.600;2022-10-20T03:18:11;3.70;99.90
18882;DHT22;9573;50.948;11.600;2022-10-20T03:20:40;3.60;99.90
18882;DHT22;9573;50.948;11.600;2022-10-20T03:23:07;3.60;99.90
18882;DHT22;9573;50.948;11.600;2022-10-20T03:25:34;3.50;99.90
18882;DHT22;9573;50.948;11.600;2022-10-20T03:28:01;3.40;99.90
18882;DHT22;9573;50.948;11.600;2022-10-20T03:30:28;3.40;99.90
18882;DHT22;9573;50.948;11.600;2022-10-20T03:32:55;3.30;99.90
18882;DHT22;9573;50.948;11.600;2022-10-20T03:35:22;3.30;99.90
18882;DHT22;9573;50.948;11.600;2022-10-20T03:37:51;3.30;99.90
18882;DHT22;9573;50.948;11.600;2022-10-20T03:40:18;3.30;99.90
18882;DHT22;9573;50.948;11.600;2022-10-20T03:42:45;3.30;99.90
18882;DHT22;9573;50.948;11.600;2022-10-20T03:45:12;3.20;99.90
18882;DHT22;9573;50.948;11.600;2022-10-20T03:47:39;3.20;99.90
18882;DHT22;9573;50.948;11.600;2022-10-20T03:50:07;3.20;99.90
18882;DHT22;9573;50.948;11.600;2022-10-20T03:52:35;3.10;99.90
18882;DHT22;9573;50.948;11.600;2022-10-20T03:55:04;3.10;99.90
18882;DHT22;9573;50.948;11.600;2022-10-20T03:57:31;3.10;99.90
18882;DHT22;9573;50.948;11.600;2022-10-20T03:59:58;3.10;99.90
18882;DHT22;9573;50.948;11.600;2022-10-20T04:02:31;3.10;99.90
18882;DHT22;9573;50.948;11.600;2022-10-20T04:05:00;3.10;99.90
18882;DHT22;9573;50.948;11.600;2022-10-20T04:07:27;3.10;99.90
18882;DHT22;9573;50.948;11.600;2022-10-20T04:09:54;3.10;99.90
18882;DHT22;9573;50.948;11.600;2022-10-20T04:12:23;3.10;99.90
18882;DHT22;9573;50.948;11.600;2022-10-20T04:14:51;3.00;99.90
18882;DHT22;9573;50.948;11.600;2022-10-20T04:17:18;3.10;99.90
18882;DHT22;9573;50.948;11.600;2022-10-20T04:19:45;3.00;99.90
18882;DHT22;9573;50.948;11.600;2022-10-20T04:22:12;3.00;99.90
18882;DHT22;9573;50.948;11.600;2022-10-20T04:24:40;3.00;99.90
18882;DHT22;9573;50.948;11.600;2022-10-20T04:27:07;3.00;99.90
18882;DHT22;9573;50.948;11.600;2022-10-20T04:29:36;3.00;99.90
18882;DHT22;9573;50.948;11.600;2022-10-20T04:32:03;3.00;99.90
18882;DHT22;9573;50.948;11.600;2022-10-20T04:34:31;3.00;99.90
18882;DHT22;9573;50.948;11.600;2022-10-20T04:36:58;2.90;99.90
18882;DHT22;9573;50.948;11.600;2022-10-20T04:39:25;2.90;99.90
18882;DHT22;9573;50.948;11.600;2022-10-20T04:41:52;2.90;99.90
18882;DHT22;9573;50.948;11.600;2022-10-20T04:44:19;2.90;99.90
18882;DHT22;9573;50.948;11.600;2022-10-20T04:46:47;2.90;99.90
18882;DHT22;9573;50.948;11.600;2022-10-20T04:49:14;2.90;99.90
18882;DHT22;9573;50.948;11.600;2022-10-20T04:51:42;2.80;99.90
18882;DHT22;9573;50.948;11.600;2022-10-20T04:54:09;2.80;99.90
18882;DHT22;9573;50.948;11.600;2022-10-20T04:56:36;2.80;99.90
18882;DHT22;9573;50.948;11.600;2022-10-20T04:59:03;2.80;99.90
18882;DHT22;9573;50.948;11.600;2022-10-20T05:01:30;2.70;99.90
18882;DHT22;9573;50.948;11.600;2022-10-20T05:03:59;2.70;99.90
18882;DHT22;9573;50.948;11.600;2022-10-20T05:06:28;2.80;99.90
18882;DHT22;9573;50.948;11.600;2022-10-20T05:08:57;2.80;99.90
18882;DHT22;9573;50.948;11.600;2022-10-20T05:11:28;2.80;99.90
18882;DHT22;9573;50.948;11.600;2022-10-20T05:13:56;2.80;99.90
18882;DHT22;9573;50.948;11.600;2022-10-20T05:16:23;2.80;99.90
18882;DHT22;9573;50.948;11.600;2022-10-20T05:18:51;2.70;99.90
18882;DHT22;9573;50.948;11.600;2022-10-20T05:21:23;2.70;99.90
18882;DHT22;9573;50.948;11.600;2022-10-20T05:23:54;2.70;99.90
18882;DHT22;9573;50.948;11.600;2022-10-20T05:26:21;2.70;99.90
18882;DHT22;9573;50.948;11.600;2022-10-20T05:28:50;2.70;99.90
18882;DHT22;9573;50.948;11.600;2022-10-20T05:31:19;2.70;99.90
18882;DHT22;9573;50.948;11.600;2022-10-20T05:33:48;2.80;99.90
18882;DHT22;9573;50.948;11.600;2022-10-20T05:36:19;2.80;99.90
18882;DHT22;9573;50.948;11.600;2022-10-20T05:38:49;2.80;99.90
18882;DHT22;9573;50.948;11.600;2022-10-20T05:41:19;2.80;99.90
18882;DHT22;9573;50.948;11.600;2022-10-20T05:43:47;2.80;99.90
18882;DHT22;9573;50.948;11.600;2022-10-20T05:46:15;2.70;99.90
18882;DHT22;9573;50.948;11.600;2022-10-20T05:48:43;2.70;99.90
18882;DHT22;9573;50.948;11.600;2022-10-20T05:51:11;2.70;99.90
18882;DHT22;9573;50.948;11.600;2022-10-20T05:53:42;2.80;99.90
18882;DHT22;9573;50.948;11.600;2022-10-20T05:56:11;2.90;99.90
18882;DHT22;9573;50.948;11.600;2022-10-20T05:58:39;2.90;99.90
18882;DHT22;9573;50.948;11.600;2022-10-20T06:01:08;3.00;99.90
18882;DHT22;9573;50.948;11.600;2022-10-20T06:03:41;3.10;99.90
18882;DHT22;9573;50.948;11.600;2022-10-20T06:06:08;3.20;99.90
18882;DHT22;9573;50.948;11.600;2022-10-20T06:08:35;3.30;99.90
18882;DHT22;9573;50.948;11.600;2022-10-20T06:11:05;3.40;99.90
18882;DHT22;9573;50.948;11.600;2022-10-20T06:13:34;3.50;99.90
18882;DHT22;9573;50.948;11.600;2022-10-20T06:16:02;3.60;99.90
18882;DHT22;9573;50.948;11.600;2022-10-20T06:18:30;3.70;99.90
18882;DHT22;9573;50.948;11.600;2022-10-20T06:20:59;3.90;99.90
18882;DHT22;9573;50.948;11.600;2022-10-20T06:23:27;4.00;99.90
18882;DHT22;9573;50.948;11.600;2022-10-20T06:25:56;4.20;99.90
18882;DHT22;9573;50.948;11.600;2022-10-20T06:28:30;4.40;99.90
18882;DHT22;9573;50.948;11.600;2022-10-20T06:30:58;4.60;99.90
18882;DHT22;9573;50.948;11.600;2022-10-20T06:33:29;4.80;99.90
18882;DHT22;9573;50.948;11.600;2022-10-20T06:35:58;5.00;99.90
18882;DHT22;9573;50.948;11.600;2022-10-20T06:38:26;5.20;99.90
18882;DHT22;9573;50.948;11.600;2022-10-20T06:40:53;5.40;99.90
18882;DHT22;9573;50.948;11.600;2022-10-20T06:43:21;5.60;99.90
18882;DHT22;9573;50.948;11.600;2022-10-20T06:45:56;5.80;99.90
18882;DHT22;9573;50.948;11.600;2022-10-20T06:48:24;6.00;99.90
18882;DHT22;9573;50.948;11.600;2022-10-20T06:50:55;6.10;99.90
18882;DHT22;9573;50.948;11.600;2022-10-20T06:53:23;6.30;99.90
18882;DHT22;9573;50.948;11.600;2022-10-20T06:55:57;6.50;99.90
18882;DHT22;9573;50.948;11.600;2022-10-20T06:58:25;6.70;99.90
18882;DHT22;9573;50.948;11.600;2022-10-20T07:01:01;6.90;99.90
18882;DHT22;9573;50.948;11.600;2022-10-20T07:03:30;7.10;99.90
18882;DHT22;9573;50.948;11.600;2022-10-20T07:05:58;7.30;99.90
18882;DHT22;9573;50.948;11.600;2022-10-20T07:08:27;7.60;99.90
18882;DHT22;9573;50.948;11.600;2022-10-20T07:10:59;7.80;99.90
18882;DHT22;9573;50.948;11.600;2022-10-20T07:13:27;8.00;99.90
18882;DHT22;9573;50.948;11.600;2022-10-20T07:15:56;8.10;99.90
18882;DHT22;9573;50.948;11.600;2022-10-20T07:18:26;8.50;99.90
18882;DHT22;9573;50.948;11.600;2022-10-20T07:20:55;8.80;99.90
18882;DHT22;9573;50.948;11.600;2022-10-20T07:23:24;9.20;99.90
18882;DHT22;9573;50.948;11.600;2022-10-20T07:25:51;9.60;99.90
18882;DHT22;9573;50.948;11.600;2022-10-20T07:28:19;10.20;99.90
18882;DHT22;9573;50.948;11.600;2022-10-20T07:30:47;10.80;99.90
18882;DHT22;9573;50.948;11.600;2022-10-20T07:33:14;11.40;99.90
18882;DHT22;9573;50.948;11.600;2022-10-20T07:35:42;12.10;99.90
18882;DHT22;9573;50.948;11.600;2022-10-20T07:38:10;13.50;99.90
18882;DHT22;9573;50.948;11.600;2022-10-20T07:40:37;15.30;99.90
18882;DHT22;9573;50.948;11.600;2022-10-20T07:43:04;16.80;99.90
18882;DHT22;9573;50.948;11.600;2022-10-20T07:45:31;17.40;99.90
18882;DHT22;9573;50.948;11.600;2022-10-20T07:47:59;18.10;99.90
18882;DHT22;9573;50.948;11.600;2022-10-20T07:50:26;18.80;99.90
18882;DHT22;9573;50.948;11.600;2022-10-20T07:52:55;19.40;99.90
18882;DHT22;9573;50.948;11.600;2022-10-20T07:55:22;20.10;99.90
18882;DHT22;9573;50.948;11.600;2022-10-20T07:57:49;20.70;99.90
18882;DHT22;9573;50.948;11.600;2022-10-20T08:00:16;21.20;99.90
18882;DHT22;9573;50.948;11.600;2022-10-20T08:02:43;21.70;99.90
18882;DHT22;9573;50.948;11.600;2022-10-20T08:05:11;21.60;99.90
18882;DHT22;9573;50.948;11.600;2022-10-20T08:07:39;22.20;99.90
18882;DHT22;9573;50.948;11.600;2022-10-20T08:10:08;23.20;98.00
18882;DHT22;9573;50.948;11.600;2022-10-20T08:12:35;23.50;95.40
18882;DHT22;9573;50.948;11.600;2022-10-20T08:15:03;23.90;94.00
18882;DHT22;9573;50.948;11.600;2022-10-20T08:17:30;23.30;92.90
18882;DHT22;9573;50.948;11.600;2022-10-20T08:19:58;21.90;94.00
18882;DHT22;9573;50.948;11.600;2022-10-20T08:22:25;20.90;95.20
18882;DHT22;9573;50.948;11.600;2022-10-20T08:24:52;21.30;95.00
18882;DHT22;9573;50.948;11.600;2022-10-20T08:27:20;21.80;93.80
18882;DHT22;9573;50.948;11.600;2022-10-20T08:29:48;23.00;92.20
18882;DHT22;9573;50.948;11.600;2022-10-20T08:32:15;24.20;90.10
18882;DHT22;9573;50.948;11.600;2022-10-20T08:34:42;24.80;87.20
18882;DHT22;9573;50.948;11.600;2022-10-20T08:37:09;24.30;85.80
18882;DHT22;9573;50.948;11.600;2022-10-20T08:39:36;23.80;87.00
18882;DHT22;9573;50.948;11.600;2022-10-20T08:42:03;23.40;86.70
18882;DHT22;9573;50.948;11.600;2022-10-20T08:44:33;23.30;87.20
18882;DHT22;9573;50.948;11.600;2022-10-20T08:47:02;23.90;86.40
18882;DHT22;9573;50.948;11.600;2022-10-20T08:49:33;24.20;84.60
18882;DHT22;9573;50.948;11.600;2022-10-20T08:52:01;24.30;82.50
18882;DHT22;9573;50.948;11.600;2022-10-20T08:54:31;24.50;81.00
18882;DHT22;9573;50.948;11.600;2022-10-20T08:56:59;25.00;80.10
18882;DHT22;9573;50.948;11.600;2022-10-20T08:59:28;25.20;80.10
18882;DHT22;9573;50.948;11.600;2022-10-20T09:02:02;24.80;79.60
18882;DHT22;9573;50.948;11.600;2022-10-20T09:04:35;24.50;80.50
18882;DHT22;9573;50.948;11.600;2022-10-20T09:07:12;24.00;81.80
18882;DHT22;9573;50.948;11.600;2022-10-20T09:09:45;24.10;82.10
18882;DHT22;9573;50.948;11.600;2022-10-20T09:12:13;24.50;82.20
18882;DHT22;9573;50.948;11.600;2022-10-20T09:14:42;24.90;80.70
18882;DHT22;9573;50.948;11.600;2022-10-20T09:17:14;25.40;78.50
18882;DHT22;9573;50.948;11.600;2022-10-20T09:19:43;25.80;77.70
18882;DHT22;9573;50.948;11.600;2022-10-20T09:22:14;25.50;76.90
18882;DHT22;9573;50.948;11.600;2022-10-20T09:24:42;24.50;75.20
18882;DHT22;9573;50.948;11.600;2022-10-20T09:27:22;23.90;76.10
18882;DHT22;9573;50.948;11.600;2022-10-20T09:29:52;23.90;76.10
18882;DHT22;9573;50.948;11.600;2022-10-20T09:32:30;24.10;75.40
18882;DHT22;9573;50.948;11.600;2022-10-20T09:35:11;24.50;74.30
18882;DHT22;9573;50.948;11.600;2022-10-20T09:37:58;25.20;72.30
18882;DHT22;9573;50.948;11.600;2022-10-20T09:40:28;26.30;69.70
18882;DHT22;9573;50.948;11.600;2022-10-20T09:42:58;27.70;67.90
18882;DHT22;9573;50.948;11.600;2022-10-20T09:45:30;28.80;64.30
18882;DHT22;9573;50.948;11.600;2022-10-20T09:48:02;29.60;62.30
18882;DHT22;9573;50.948;11.600;2022-10-20T09:50:33;29.10;60.50
18882;DHT22;9573;50.948;11.600;2022-10-20T09:53:04;28.80;60.60
18882;DHT22;9573;50.948;11.600;2022-10-20T09:55:34;28.40;60.70
18882;DHT22;9573;50.948;11.600;2022-10-20T09:58:13;29.30;60.40
18882;DHT22;9573;50.948;11.600;2022-10-20T10:00:58;29.90;58.10
18882;DHT22;9573;50.948;11.600;2022-10-20T10:03:26;30.70;57.50
18882;DHT22;9573;50.948;11.600;2022-10-20T10:05:55;31.20;57.00
18882;DHT22;9573;50.948;11.600;2022-10-20T10:08:25;31.20;55.40
18882;DHT22;9573;50.948;11.600;2022-10-20T10:10:59;30.80;54.90
18882;DHT22;9573;50.948;11.600;2022-10-20T10:13:29;30.50;56.40
18882;DHT22;9573;50.948;11.600;2022-10-20T10:16:03;30.10;54.80
18882;DHT22;9573;50.948;11.600;2022-10-20T10:18:31;30.30;56.20
18882;DHT22;9573;50.948;11.600;2022-10-20T10:21:02;30.80;55.70
18882;DHT22;9573;50.948;11.600;2022-10-20T10:23:34;31.10;54.40
18882;DHT22;9573;50.948;11.600;2022-10-20T10:26:43;31.00;53.50
18882;DHT22;9573;50.948;11.600;2022-10-20T10:29:25;31.00;53.50
18882;DHT22;9573;50.948;11.600;2022-10-20T10:32:00;30.70;52.80
18882;DHT22;9573;50.948;11.600;2022-10-20T10:34:41;30.30;53.90
18882;DHT22;9573;50.948;11.600;2022-10-20T10:37:16;30.50;53.60
18882;DHT22;9573;50.948;11.600;2022-10-20T10:39:44;30.30;53.30
18882;DHT22;9573;50.948;11.600;2022-10-20T10:42:30;30.50;53.50
18882;DHT22;9573;50.948;11.600;2022-10-20T10:45:17;30.30;54.00
18882;DHT22;9573;50.948;11.600;2022-10-20T10:48:21;29.90;54.60
18882;DHT22;9573;50.948;11.600;2022-10-20T10:51:17;29.60;54.40
18882;DHT22;9573;50.948;11.600;2022-10-20T10:53:56;29.10;54.90
18882;DHT22;9573;50.948;11.600;2022-10-20T10:56:32;29.50;55.70
18882;DHT22;9573;50.948;11.600;2022-10-20T10:59:09;30.20;55.50
18882;DHT22;9573;50.948;11.600;2022-10-20T11:05:19;29.60;53.70
18882;DHT22;9573;50.948;11.600;2022-10-20T11:07:55;30.00;54.10
18882;DHT22;9573;50.948;11.600;2022-10-20T11:10:35;30.10;53.40
18882;DHT22;9573;50.948;11.600;2022-10-20T11:13:21;30.10;53.20
18882;DHT22;9573;50.948;11.600;2022-10-20T11:16:00;29.90;54.20
18882;DHT22;9573;50.948;11.600;2022-10-20T11:18:50;30.20;54.40
18882;DHT22;9573;50.948;11.600;2022-10-20T11:21:45;30.40;53.70
18882;DHT22;9573;50.948;11.600;2022-10-20T11:24:38;30.30;53.60
18882;DHT22;9573;50.948;11.600;2022-10-20T11:27:13;30.10;53.70
18882;DHT22;9573;50.948;11.600;2022-10-20T11:29:45;30.10;54.00
18882;DHT22;9573;50.948;11.600;2022-10-20T11:32:22;29.90;53.60
18882;DHT22;9573;50.948;11.600;2022-10-20T11:34:58;29.70;53.90
18882;DHT22;9573;50.948;11.600;2022-10-20T11:37:31;29.20;53.50
18882;DHT22;9573;50.948;11.600;2022-10-20T11:40:10;28.20;55.40
18882;DHT22;9573;50.948;11.600;2022-10-20T11:42:43;27.70;56.10
18882;DHT22;9573;50.948;11.600;2022-10-20T11:45:30;27.70;56.60
18882;DHT22;9573;50.948;11.600;2022-10-20T11:48:10;27.70;55.70
18882;DHT22;9573;50.948;11.600;2022-10-20T11:50:41;27.40;55.60
18882;DHT22;9573;50.948;11.600;2022-10-20T11:53:37;27.30;56.30
18882;DHT22;9573;50.948;11.600;2022-10-20T11:56:27;27.30;55.70
18882;DHT22;9573;50.948;11.600;2022-10-20T11:59:21;26.50;55.10
18882;DHT22;9573;50.948;11.600;2022-10-20T12:02:58;25.30;57.00
18882;DHT22;9573;50.948;11.600;2022-10-20T12:06:05;24.20;58.70
18882;DHT22;9573;50.948;11.600;2022-10-20T12:08:55;23.10;60.40
18882;DHT22;9573;50.948;11.600;2022-10-20T12:11:34;22.90;61.60
18882;DHT22;9573;50.948;11.600;2022-10-20T12:14:11;23.20;61.30
18882;DHT22;9573;50.948;11.600;2022-10-20T12:17:12;24.10;59.70
18882;DHT22;9573;50.948;11.600;2022-10-20T12:19:41;25.10;58.00
18882;DHT22;9573;50.948;11.600;2022-10-20T12:22:38;25.70;57.00
18882;DHT22;9573;50.948;11.600;2022-10-20T12:25:35;26.00;55.70
18882;DHT22;9573;50.948;11.600;2022-10-20T12:28:31;26.00;55.70
18882;DHT22;9573;50.948;11.600;2022-10-20T12:31:08;25.80;56.60
18882;DHT22;9573;50.948;11.600;2022-10-20T12:33:58;25.60;57.20
18882;DHT22;9573;50.948;11.600;2022-10-20T12:36:36;25.30;57.10
18882;DHT22;9573;50.948;11.600;2022-10-20T12:39:16;24.90;57.00
18882;DHT22;9573;50.948;11.600;2022-10-20T12:41:55;24.50;57.80
18882;DHT22;9573;50.948;11.600;2022-10-20T12:44:25;24.40;58.40
18882;DHT22;9573;50.948;11.600;2022-10-20T12:46:56;24.50;58.00
18882;DHT22;9573;50.948;11.600;2022-10-20T12:49:28;24.80;58.30
18882;DHT22;9573;50.948;11.600;2022-10-20T12:51:58;24.80;57.80
18882;DHT22;9573;50.948;11.600;2022-10-20T12:54:33;24.60;58.20
18882;DHT22;9573;50.948;11.600;2022-10-20T12:57:04;24.50;58.10
18882;DHT22;9573;50.948;11.600;2022-10-20T12:59:52;24.30;58.40
18882;DHT22;9573;50.948;11.600;2022-10-20T13:02:47;23.60;59.30
18882;DHT22;9573;50.948;11.600;2022-10-20T13:05:46;23.20;59.90
18882;DHT22;9573;50.948;11.600;2022-10-20T13:08:25;22.70;60.60
18882;DHT22;9573;50.948;11.600;2022-10-20T13:10:56;22.20;62.20
18882;DHT22;9573;50.948;11.600;2022-10-20T13:14:06;22.20;62.40
18882;DHT22;9573;50.948;11.600;2022-10-20T13:16:46;22.40;61.70
18882;DHT22;9573;50.948;11.600;2022-10-20T13:19:19;21.90;62.30
18882;DHT22;9573;50.948;11.600;2022-10-20T13:21:49;21.30;64.10
18882;DHT22;9573;50.948;11.600;2022-10-20T13:24:20;21.20;65.00
18882;DHT22;9573;50.948;11.600;2022-10-20T13:26:54;20.90;65.30
18882;DHT22;9573;50.948;11.600;2022-10-20T13:29:26;20.50;66.60
18882;DHT22;9573;50.948;11.600;2022-10-20T13:32:07;20.30;67.40
18882;DHT22;9573;50.948;11.600;2022-10-20T13:34:45;19.70;68.80
18882;DHT22;9573;50.948;11.600;2022-10-20T13:37:28;19.40;69.90
18882;DHT22;9573;50.948;11.600;2022-10-20T13:40:16;18.90;71.30
18882;DHT22;9573;50.948;11.600;2022-10-20T13:42:59;18.60;72.10
18882;DHT22;9573;50.948;11.600;2022-10-20T13:45:41;18.50;73.20
18882;DHT22;9573;50.948;11.600;2022-10-20T13:48:30;18.50;73.10
18882;DHT22;9573;50.948;11.600;2022-10-20T13:51:05;18.60;73.00
18882;DHT22;9573;50.948;11.600;2022-10-20T13:53:40;18.30;73.70
18882;DHT22;9573;50.948;11.600;2022-10-20T13:56:24;18.10;73.50
18882;DHT22;9573;50.948;11.600;2022-10-20T13:59:02;18.00;74.30
18882;DHT22;9573;50.948;11.600;2022-10-20T14:01:33;17.70;75.40
18882;DHT22;9573;50.948;11.600;2022-10-20T14:04:01;17.70;75.70
18882;DHT22;9573;50.948;11.600;2022-10-20T14:06:30;17.60;76.40
18882;DHT22;9573;50.948;11.600;2022-10-20T14:09:07;17.50;77.50
18882;DHT22;9573;50.948;11.600;2022-10-20T14:11:36;17.40;77.90
18882;DHT22;9573;50.948;11.600;2022-10-20T14:14:11;17.30;78.10
18882;DHT22;9573;50.948;11.600;2022-10-20T14:16:45;17.30;77.90
18882;DHT22;9573;50.948;11.600;2022-10-20T14:19:20;17.30;78.30
18882;DHT22;9573;50.948;11.600;2022-10-20T14:21:54;17.30;78.60
18882;DHT22;9573;50.948;11.600;2022-10-20T14:24:30;17.30;77.70
18882;DHT22;9573;50.948;11.600;2022-10-20T14:27:01;17.30;79.00
18882;DHT22;9573;50.948;11.600;2022-10-20T14:29:41;17.30;78.60
18882;DHT22;9573;50.948;11.600;2022-10-20T14:32:11;17.40;78.70
18882;DHT22;9573;50.948;11.600;2022-10-20T14:34:54;17.30;78.80
18882;DHT22;9573;50.948;11.600;2022-10-20T14:37:28;17.40;78.60
18882;DHT22;9573;50.948;11.600;2022-10-20T14:39:59;17.40;78.50
18882;DHT22;9573;50.948;11.600;2022-10-20T14:42:29;17.40;79.00
18882;DHT22;9573;50.948;11.600;2022-10-20T14:45:00;17.30;79.60
18882;DHT22;9573;50.948;11.600;2022-10-20T14:47:31;17.30;80.00
18882;DHT22;9573;50.948;11.600;2022-10-20T14:50:04;17.10;80.50
18882;DHT22;9573;50.948;11.600;2022-10-20T14:52:33;16.90;80.90
18882;DHT22;9573;50.948;11.600;2022-10-20T14:55:01;16.90;81.20
18882;DHT22;9573;50.948;11.600;2022-10-20T14:57:42;16.90;82.00
18882;DHT22;9573;50.948;11.600;2022-10-20T15:00:29;16.80;82.30
18882;DHT22;9573;50.948;11.600;2022-10-20T15:02:59;16.70;82.70
18882;DHT22;9573;50.948;11.600;2022-10-20T15:05:33;16.60;83.00
18882;DHT22;9573;50.948;11.600;2022-10-20T15:08:17;16.50;84.20
18882;DHT22;9573;50.948;11.600;2022-10-20T15:10:49;16.40;85.50
18882;DHT22;9573;50.948;11.600;2022-10-20T15:13:21;16.30;86.00
18882;DHT22;9573;50.948;11.600;2022-10-20T15:15:52;16.10;86.50
18882;DHT22;9573;50.948;11.600;2022-10-20T15:18:20;16.00;86.90
18882;DHT22;9573;50.948;11.600;2022-10-20T15:20:52;15.90;87.60
18882;DHT22;9573;50.948;11.600;2022-10-20T15:23:21;15.80;88.20
18882;DHT22;9573;50.948;11.600;2022-10-20T15:25:51;15.70;88.80
18882;DHT22;9573;50.948;11.600;2022-10-20T15:28:30;15.60;89.70
18882;DHT22;9573;50.948;11.600;2022-10-20T15:31:17;15.60;90.30
18882;DHT22;9573;50.948;11.600;2022-10-20T15:33:46;15.40;90.90
18882;DHT22;9573;50.948;11.600;2022-10-20T15:36:15;15.20;91.00
18882;DHT22;9573;50.948;11.600;2022-10-20T15:38:47;15.10;91.40
18882;DHT22;9573;50.948;11.600;2022-10-20T15:41:16;15.10;91.50
18882;DHT22;9573;50.948;11.600;2022-10-20T15:43:44;15.00;91.60
18882;DHT22;9573;50.948;11.600;2022-10-20T15:46:12;15.00;91.90
18882;DHT22;9573;50.948;11.600;2022-10-20T15:48:43;14.80;92.70
18882;DHT22;9573;50.948;11.600;2022-10-20T15:51:14;14.70;92.40
18882;DHT22;9573;50.948;11.600;2022-10-20T15:53:43;14.70;93.30
18882;DHT22;9573;50.948;11.600;2022-10-20T15:56:13;14.60;94.00
18882;DHT22;9573;50.948;11.600;2022-10-20T15:58:40;14.40;94.80
18882;DHT22;9573;50.948;11.600;2022-10-20T16:01:08;14.30;95.40
18882;DHT22;9573;50.948;11.600;2022-10-20T16:03:37;14.10;96.20
18882;DHT22;9573;50.948;11.600;2022-10-20T16:06:05;14.00;96.60
18882;DHT22;9573;50.948;11.600;2022-10-20T16:08:34;13.90;97.30
18882;DHT22;9573;50.948;11.600;2022-10-20T16:11:02;13.80;97.70
18882;DHT22;9573;50.948;11.600;2022-10-20T16:13:30;13.70;98.50
18882;DHT22;9573;50.948;11.600;2022-10-20T16:15:58;13.70;99.30
18882;DHT22;9573;50.948;11.600;2022-10-20T16:18:25;13.60;99.90
18882;DHT22;9573;50.948;11.600;2022-10-20T16:20:56;13.50;99.90